sensor_id;sensor_type;location;lat;lon;timestamp;temperature;humidity
16635;DHT22;8431;52.458;9.998;2023-02-15T00:02:05;-0.50;99.90
16635;DHT22;8431;52.458;9.998;2023-02-15T00:04:32;-0.50;99.90
16635;DHT22;8431;52.458;9.998;2023-02-15T00:07:14;-0.40;99.90
16635;DHT22;8431;52.458;9.998;2023-02-15T00:09:45;-0.40;99.90
16635;DHT22;8431;52.458;9.998;2023-02-15T00:12:12;-0.40;99.90
16635;DHT22;8431;52.458;9.998;2023-02-15T00:14:40;-0.50;99.90
16635;DHT22;8431;52.458;9.998;2023-02-15T00:17:07;-0.60;99.90
16635;DHT22;8431;52.458;9.998;2023-02-15T00:19:35;-0.70;99.90
16635;DHT22;8431;52.458;9.998;2023-02-15T00:22:02;-0.80;99.90
16635;DHT22;8431;52.458;9.998;2023-02-15T00:24:29;-0.80;99.90
16635;DHT22;8431;52.458;9.998;2023-02-15T00:27:00;-0.80;99.90
16635;DHT22;8431;52.458;9.998;2023-02-15T00:29:29;-0.80;99.90
16635;DHT22;8431;52.458;9.998;2023-02-15T00:31:58;-0.80;99.90
16635;DHT22;8431;52.458;9.998;2023-02-15T00:34:26;-0.80;99.90
16635;DHT22;8431;52.458;9.998;2023-02-15T00:36:54;-0.80;99.90
16635;DHT22;8431;52.458;9.998;2023-02-15T00:39:21;-0.80;99.90
16635;DHT22;8431;52.458;9.998;2023-02-15T00:41:54;-0.80;99.90
16635;DHT22;8431;52.458;9.998;2023-02-15T00:44:22;-0.80;99.90
16635;DHT22;8431;52.458;9.998;2023-02-15T00:46:49;-0.70;99.90
16635;DHT22;8431;52.458;9.998;2023-02-15T00:49:16;-0.60;99.90
16635;DHT22;8431;52.458;9.998;2023-02-15T00:51:43;-0.70;99.90
16635;DHT22;8431;52.458;9.998;2023-02-15T00:54:11;-0.80;99.90
16635;DHT22;8431;52.458;9.998;2023-02-15T00:56:39;-0.90;99.90
16635;DHT22;8431;52.458;9.998;2023-02-15T00:59:07;-0.90;99.90
16635;DHT22;8431;52.458;9.998;2023-02-15T01:01:39;-1.10;99.90
16635;DHT22;8431;52.458;9.998;2023-02-15T01:04:06;-1.10;99.90
16635;DHT22;8431;52.458;9.998;2023-02-15T01:06:33;-1.10;99.90
16635;DHT22;8431;52.458;9.998;2023-02-15T01:09:05;-1.00;99.90
16635;DHT22;8431;52.458;9.998;2023-02-15T01:11:32;-1.00;99.90
16635;DHT22;8431;52.458;9.998;2023-02-15T01:13:59;-1.00;99.90
16635;DHT22;8431;52.458;9.998;2023-02-15T01:16:43;-1.00;99.90
16635;DHT22;8431;52.458;9.998;2023-02-15T01:19:12;-1.00;99.90
16635;DHT22;8431;52.458;9.998;2023-02-15T01:21:39;-1.00;99.90
16635;DHT22;8431;52.458;9.998;2023-02-15T01:24:11;-1.10;99.90
16635;DHT22;8431;52.458;9.998;2023-02-15T01:26:39;-1.10;99.90
16635;DHT22;8431;52.458;9.998;2023-02-15T01:29:09;-1.10;99.90
16635;DHT22;8431;52.458;9.998;2023-02-15T01:31:36;-1.10;99.90
16635;DHT22;8431;52.458;9.998;2023-02-15T01:34:07;-1.10;99.90
16635;DHT22;8431;52.458;9.998;2023-02-15T01:36:34;-1.10;99.90
16635;DHT22;8431;52.458;9.998;2023-02-15T01:39:03;-1.10;99.90
16635;DHT22;8431;52.458;9.998;2023-02-15T01:41:30;-1.10;99.90
16635;DHT22;8431;52.458;9.998;2023-02-15T01:44:02;-1.20;99.90
16635;DHT22;8431;52.458;9.998;2023-02-15T01:46:35;-1.20;99.90
16635;DHT22;8431;52.458;9.998;2023-02-15T01:49:10;-1.20;99.90
16635;DHT22;8431;52.458;9.998;2023-02-15T01:51:42;-1.20;99.90
16635;DHT22;8431;52.458;9.998;2023-02-15T01:54:17;-1.20;99.90
16635;DHT22;8431;52.458;9.998;2023-02-15T01:56:47;-1.30;99.90
16635;DHT22;8431;52.458;9.998;2023-02-15T01:59:19;-1.40;99.90
16635;DHT22;8431;52.458;9.998;2023-02-15T02:01:49;-1.40;99.90
16635;DHT22;8431;52.458;9.998;2023-02-15T02:04:23;-1.30;99.90
16635;DHT22;8431;52.458;9.998;2023-02-15T02:06:52;-1.30;99.90
16635;DHT22;8431;52.458;9.998;2023-02-15T02:09:20;-1.40;99.90
16635;DHT22;8431;52.458;9.998;2023-02-15T02:11:47;-1.50;99.90
16635;DHT22;8431;52.458;9.998;2023-02-15T02:14:15;-1.50;99.90
16635;DHT22;8431;52.458;9.998;2023-02-15T02:16:48;-1.50;99.90
16635;DHT22;8431;52.458;9.998;2023-02-15T02:19:45;-1.60;99.90
16635;DHT22;8431;52.458;9.998;2023-02-15T02:22:44;-1.70;99.90
16635;DHT22;8431;52.458;9.998;2023-02-15T02:28:34;-1.70;99.90
16635;DHT22;8431;52.458;9.998;2023-02-15T02:31:31;-1.60;99.90
16635;DHT22;8431;52.458;9.998;2023-02-15T02:34:09;-1.50;99.90
16635;DHT22;8431;52.458;9.998;2023-02-15T02:36:45;-1.50;99.90
16635;DHT22;8431;52.458;9.998;2023-02-15T02:39:30;-1.60;99.90
16635;DHT22;8431;52.458;9.998;2023-02-15T02:42:05;-1.60;99.90
16635;DHT22;8431;52.458;9.998;2023-02-15T02:44:40;-1.60;99.90
16635;DHT22;8431;52.458;9.998;2023-02-15T02:47:18;-1.60;99.90
16635;DHT22;8431;52.458;9.998;2023-02-15T02:49:59;-1.60;99.90
16635;DHT22;8431;52.458;9.998;2023-02-15T02:52:39;-1.70;99.90
16635;DHT22;8431;52.458;9.998;2023-02-15T02:55:18;-1.70;99.90
16635;DHT22;8431;52.458;9.998;2023-02-15T02:57:52;-1.70;99.90
16635;DHT22;8431;52.458;9.998;2023-02-15T03:00:23;-1.60;99.90
16635;DHT22;8431;52.458;9.998;2023-02-15T03:03:02;-1.70;99.90
16635;DHT22;8431;52.458;9.998;2023-02-15T03:05:35;-1.80;99.90
16635;DHT22;8431;52.458;9.998;2023-02-15T03:08:04;-1.90;99.90
16635;DHT22;8431;52.458;9.998;2023-02-15T03:10:37;-2.00;99.90
16635;DHT22;8431;52.458;9.998;2023-02-15T03:13:04;-2.10;99.90
16635;DHT22;8431;52.458;9.998;2023-02-15T03:15:36;-2.10;99.90
16635;DHT22;8431;52.458;9.998;2023-02-15T03:18:24;-2.10;99.90
16635;DHT22;8431;52.458;9.998;2023-02-15T03:20:55;-2.10;99.90
16635;DHT22;8431;52.458;9.998;2023-02-15T03:23:25;-2.10;99.90
16635;DHT22;8431;52.458;9.998;2023-02-15T03:25:55;-2.20;99.90
16635;DHT22;8431;52.458;9.998;2023-02-15T03:28:27;-2.10;99.90
16635;DHT22;8431;52.458;9.998;2023-02-15T03:30:59;-2.20;99.90
16635;DHT22;8431;52.458;9.998;2023-02-15T03:33:28;-2.10;99.90
16635;DHT22;8431;52.458;9.998;2023-02-15T03:36:00;-2.00;99.90
16635;DHT22;8431;52.458;9.998;2023-02-15T03:38:35;-2.10;99.90
16635;DHT22;8431;52.458;9.998;2023-02-15T03:41:04;-2.10;99.90
16635;DHT22;8431;52.458;9.998;2023-02-15T03:43:43;-2.10;99.90
16635;DHT22;8431;52.458;9.998;2023-02-15T03:46:18;-2.20;99.90
16635;DHT22;8431;52.458;9.998;2023-02-15T03:48:51;-2.20;99.90
16635;DHT22;8431;52.458;9.998;2023-02-15T03:51:23;-2.30;99.90
16635;DHT22;8431;52.458;9.998;2023-02-15T03:54:07;-2.30;99.90
16635;DHT22;8431;52.458;9.998;2023-02-15T03:56:39;-2.30;99.90
16635;DHT22;8431;52.458;9.998;2023-02-15T03:59:07;-2.30;99.90
16635;DHT22;8431;52.458;9.998;2023-02-15T04:01:59;-2.30;99.90
16635;DHT22;8431;52.458;9.998;2023-02-15T04:04:35;-2.30;99.90
16635;DHT22;8431;52.458;9.998;2023-02-15T04:07:07;-2.20;99.90
16635;DHT22;8431;52.458;9.998;2023-02-15T04:09:34;-2.20;99.90
16635;DHT22;8431;52.458;9.998;2023-02-15T04:12:19;-2.10;99.90
16635;DHT22;8431;52.458;9.998;2023-02-15T04:14:50;-2.20;99.90
16635;DHT22;8431;52.458;9.998;2023-02-15T04:17:36;-2.20;99.90
16635;DHT22;8431;52.458;9.998;2023-02-15T04:20:03;-2.20;99.90
16635;DHT22;8431;52.458;9.998;2023-02-15T04:22:55;-2.20;99.90
16635;DHT22;8431;52.458;9.998;2023-02-15T04:25:40;-2.30;99.90
16635;DHT22;8431;52.458;9.998;2023-02-15T04:28:10;-2.20;99.90
16635;DHT22;8431;52.458;9.998;2023-02-15T04:30:39;-2.00;99.90
16635;DHT22;8431;52.458;9.998;2023-02-15T04:33:06;-2.00;99.90
16635;DHT22;8431;52.458;9.998;2023-02-15T04:35:33;-2.00;99.90
16635;DHT22;8431;52.458;9.998;2023-02-15T04:38:01;-2.00;99.90
16635;DHT22;8431;52.458;9.998;2023-02-15T04:40:28;-2.10;99.90
16635;DHT22;8431;52.458;9.998;2023-02-15T04:42:56;-2.10;99.90
16635;DHT22;8431;52.458;9.998;2023-02-15T04:45:24;-2.20;99.90
16635;DHT22;8431;52.458;9.998;2023-02-15T04:47:52;-2.20;99.90
16635;DHT22;8431;52.458;9.998;2023-02-15T04:50:24;-2.20;99.90
16635;DHT22;8431;52.458;9.998;2023-02-15T04:52:51;-2.20;99.90
16635;DHT22;8431;52.458;9.998;2023-02-15T04:55:20;-2.30;99.90
16635;DHT22;8431;52.458;9.998;2023-02-15T04:57:47;-2.30;99.90
16635;DHT22;8431;52.458;9.998;2023-02-15T05:00:15;-2.30;99.90
16635;DHT22;8431;52.458;9.998;2023-02-15T05:02:42;-2.30;99.90
16635;DHT22;8431;52.458;9.998;2023-02-15T05:05:09;-2.30;99.90
16635;DHT22;8431;52.458;9.998;2023-02-15T05:07:43;-2.30;99.90
16635;DHT22;8431;52.458;9.998;2023-02-15T05:10:10;-2.40;99.90
16635;DHT22;8431;52.458;9.998;2023-02-15T05:12:39;-2.40;99.90
16635;DHT22;8431;52.458;9.998;2023-02-15T05:15:06;-2.40;99.90
16635;DHT22;8431;52.458;9.998;2023-02-15T05:17:33;-2.50;99.90
16635;DHT22;8431;52.458;9.998;2023-02-15T05:20:01;-2.40;99.90
16635;DHT22;8431;52.458;9.998;2023-02-15T05:22:28;-2.40;99.90
16635;DHT22;8431;52.458;9.998;2023-02-15T05:24:56;-2.30;99.90
16635;DHT22;8431;52.458;9.998;2023-02-15T05:28:01;-2.40;99.90
16635;DHT22;8431;52.458;9.998;2023-02-15T05:31:02;-2.40;99.90
16635;DHT22;8431;52.458;9.998;2023-02-15T05:33:30;-2.40;99.90
16635;DHT22;8431;52.458;9.998;2023-02-15T05:35:57;-2.40;99.90
16635;DHT22;8431;52.458;9.998;2023-02-15T05:38:24;-2.40;99.90
16635;DHT22;8431;52.458;9.998;2023-02-15T05:40:52;-2.40;99.90
16635;DHT22;8431;52.458;9.998;2023-02-15T05:43:21;-2.40;99.90
16635;DHT22;8431;52.458;9.998;2023-02-15T05:45:50;-2.50;99.90
16635;DHT22;8431;52.458;9.998;2023-02-15T05:48:19;-2.50;99.90
16635;DHT22;8431;52.458;9.998;2023-02-15T05:50:46;-2.50;99.90
16635;DHT22;8431;52.458;9.998;2023-02-15T05:53:13;-2.60;99.90
16635;DHT22;8431;52.458;9.998;2023-02-15T05:55:41;-2.60;99.90
16635;DHT22;8431;52.458;9.998;2023-02-15T05:58:08;-2.50;99.90
16635;DHT22;8431;52.458;9.998;2023-02-15T06:00:36;-2.50;99.90
16635;DHT22;8431;52.458;9.998;2023-02-15T06:03:03;-2.50;99.90
16635;DHT22;8431;52.458;9.998;2023-02-15T06:05:31;-2.40;99.90
16635;DHT22;8431;52.458;9.998;2023-02-15T06:07:58;-2.40;99.90
16635;DHT22;8431;52.458;9.998;2023-02-15T06:10:25;-2.50;99.90
16635;DHT22;8431;52.458;9.998;2023-02-15T06:12:52;-2.50;99.90
16635;DHT22;8431;52.458;9.998;2023-02-15T06:15:19;-2.60;99.90
16635;DHT22;8431;52.458;9.998;2023-02-15T06:17:48;-2.50;99.90
16635;DHT22;8431;52.458;9.998;2023-02-15T06:20:18;-2.60;99.90
16635;DHT22;8431;52.458;9.998;2023-02-15T06:22:48;-2.70;99.90
16635;DHT22;8431;52.458;9.998;2023-02-15T06:25:19;-2.70;99.90
16635;DHT22;8431;52.458;9.998;2023-02-15T06:27:46;-2.70;99.90
16635;DHT22;8431;52.458;9.998;2023-02-15T06:30:15;-2.70;99.90
16635;DHT22;8431;52.458;9.998;2023-02-15T06:32:44;-2.70;99.90
16635;DHT22;8431;52.458;9.998;2023-02-15T06:35:12;-2.70;99.90
16635;DHT22;8431;52.458;9.998;2023-02-15T06:37:39;-2.60;99.90
16635;DHT22;8431;52.458;9.998;2023-02-15T06:40:08;-2.70;99.90
16635;DHT22;8431;52.458;9.998;2023-02-15T06:42:35;-2.60;99.90
16635;DHT22;8431;52.458;9.998;2023-02-15T06:45:03;-2.50;99.90
16635;DHT22;8431;52.458;9.998;2023-02-15T06:47:30;-2.30;99.90
16635;DHT22;8431;52.458;9.998;2023-02-15T06:49:57;-2.20;99.90
16635;DHT22;8431;52.458;9.998;2023-02-15T06:52:25;-2.20;99.90
16635;DHT22;8431;52.458;9.998;2023-02-15T06:54:53;-2.20;99.90
16635;DHT22;8431;52.458;9.998;2023-02-15T06:57:20;-2.20;99.90
16635;DHT22;8431;52.458;9.998;2023-02-15T06:59:47;-2.20;99.90
16635;DHT22;8431;52.458;9.998;2023-02-15T07:02:15;-2.10;99.90
16635;DHT22;8431;52.458;9.998;2023-02-15T07:04:42;-2.00;99.90
16635;DHT22;8431;52.458;9.998;2023-02-15T07:07:10;-1.90;99.90
16635;DHT22;8431;52.458;9.998;2023-02-15T07:09:39;-1.80;99.90
16635;DHT22;8431;52.458;9.998;2023-02-15T07:12:06;-1.90;99.90
16635;DHT22;8431;52.458;9.998;2023-02-15T07:14:51;-1.90;99.90
16635;DHT22;8431;52.458;9.998;2023-02-15T07:17:18;-1.80;99.90
16635;DHT22;8431;52.458;9.998;2023-02-15T07:19:45;-1.80;99.90
16635;DHT22;8431;52.458;9.998;2023-02-15T07:22:12;-1.80;99.90
16635;DHT22;8431;52.458;9.998;2023-02-15T07:24:41;-1.80;99.90
16635;DHT22;8431;52.458;9.998;2023-02-15T07:27:08;-1.70;99.90
16635;DHT22;8431;52.458;9.998;2023-02-15T07:29:35;-1.60;99.90
16635;DHT22;8431;52.458;9.998;2023-02-15T07:32:05;-1.60;99.90
16635;DHT22;8431;52.458;9.998;2023-02-15T07:34:32;-1.60;99.90
16635;DHT22;8431;52.458;9.998;2023-02-15T07:36:59;-1.60;99.90
16635;DHT22;8431;52.458;9.998;2023-02-15T07:39:27;-1.40;99.90
16635;DHT22;8431;52.458;9.998;2023-02-15T07:41:55;-1.40;99.90
16635;DHT22;8431;52.458;9.998;2023-02-15T07:44:22;-1.30;99.90
16635;DHT22;8431;52.458;9.998;2023-02-15T07:46:49;-1.20;99.90
16635;DHT22;8431;52.458;9.998;2023-02-15T07:49:16;-1.20;99.90
16635;DHT22;8431;52.458;9.998;2023-02-15T07:51:43;-1.10;99.90
16635;DHT22;8431;52.458;9.998;2023-02-15T07:54:11;-1.10;99.90
16635;DHT22;8431;52.458;9.998;2023-02-15T07:56:38;-1.10;99.90
16635;DHT22;8431;52.458;9.998;2023-02-15T07:59:06;-1.00;99.90
16635;DHT22;8431;52.458;9.998;2023-02-15T08:01:36;-0.90;99.90
16635;DHT22;8431;52.458;9.998;2023-02-15T08:04:04;-0.90;99.90
16635;DHT22;8431;52.458;9.998;2023-02-15T08:06:33;-0.90;99.90
16635;DHT22;8431;52.458;9.998;2023-02-15T08:09:02;-0.80;99.90
16635;DHT22;8431;52.458;9.998;2023-02-15T08:11:31;-0.70;99.90
16635;DHT22;8431;52.458;9.998;2023-02-15T08:14:06;-0.60;99.90
16635;DHT22;8431;52.458;9.998;2023-02-15T08:16:35;-0.60;99.90
16635;DHT22;8431;52.458;9.998;2023-02-15T08:19:04;-0.50;99.90
16635;DHT22;8431;52.458;9.998;2023-02-15T08:21:32;-0.50;99.90
16635;DHT22;8431;52.458;9.998;2023-02-15T08:24:00;-0.50;99.90
16635;DHT22;8431;52.458;9.998;2023-02-15T08:26:28;-0.50;99.90
16635;DHT22;8431;52.458;9.998;2023-02-15T08:28:56;-0.40;99.90
16635;DHT22;8431;52.458;9.998;2023-02-15T08:31:25;-0.20;99.90
16635;DHT22;8431;52.458;9.998;2023-02-15T08:33:53;-0.10;99.90
16635;DHT22;8431;52.458;9.998;2023-02-15T08:36:27;0.10;99.90
16635;DHT22;8431;52.458;9.998;2023-02-15T08:38:54;0.20;99.90
16635;DHT22;8431;52.458;9.998;2023-02-15T08:41:23;0.20;99.90
16635;DHT22;8431;52.458;9.998;2023-02-15T08:43:53;0.30;99.90
16635;DHT22;8431;52.458;9.998;2023-02-15T08:46:21;0.40;99.90
16635;DHT22;8431;52.458;9.998;2023-02-15T08:48:51;0.60;99.90
16635;DHT22;8431;52.458;9.998;2023-02-15T08:51:20;0.70;99.90
16635;DHT22;8431;52.458;9.998;2023-02-15T08:53:49;0.80;99.90
16635;DHT22;8431;52.458;9.998;2023-02-15T08:56:18;0.90;99.90
16635;DHT22;8431;52.458;9.998;2023-02-15T08:58:46;1.00;99.90
16635;DHT22;8431;52.458;9.998;2023-02-15T09:01:15;1.10;99.90
16635;DHT22;8431;52.458;9.998;2023-02-15T09:03:44;1.10;99.90
16635;DHT22;8431;52.458;9.998;2023-02-15T09:06:13;1.30;99.90
16635;DHT22;8431;52.458;9.998;2023-02-15T09:08:41;1.30;99.90
16635;DHT22;8431;52.458;9.998;2023-02-15T09:11:10;1.40;99.90
16635;DHT22;8431;52.458;9.998;2023-02-15T09:13:38;1.70;99.90
16635;DHT22;8431;52.458;9.998;2023-02-15T09:16:07;1.90;99.90
16635;DHT22;8431;52.458;9.998;2023-02-15T09:18:36;2.10;99.90
16635;DHT22;8431;52.458;9.998;2023-02-15T09:21:05;2.10;99.90
16635;DHT22;8431;52.458;9.998;2023-02-15T09:23:34;2.30;99.90
16635;DHT22;8431;52.458;9.998;2023-02-15T09:26:06;2.30;99.90
16635;DHT22;8431;52.458;9.998;2023-02-15T09:28:34;2.40;99.90
16635;DHT22;8431;52.458;9.998;2023-02-15T09:31:06;2.70;99.90
16635;DHT22;8431;52.458;9.998;2023-02-15T09:33:34;2.70;99.90
16635;DHT22;8431;52.458;9.998;2023-02-15T09:36:01;2.80;99.90
16635;DHT22;8431;52.458;9.998;2023-02-15T09:38:28;2.90;99.90
16635;DHT22;8431;52.458;9.998;2023-02-15T09:41:07;3.00;99.90
16635;DHT22;8431;52.458;9.998;2023-02-15T09:43:43;3.20;99.90
16635;DHT22;8431;52.458;9.998;2023-02-15T09:46:28;3.30;99.90
16635;DHT22;8431;52.458;9.998;2023-02-15T09:49:06;3.30;99.90
16635;DHT22;8431;52.458;9.998;2023-02-15T09:51:55;3.30;99.90
16635;DHT22;8431;52.458;9.998;2023-02-15T09:54:37;3.30;99.90
16635;DHT22;8431;52.458;9.998;2023-02-15T09:57:16;3.40;99.90
16635;DHT22;8431;52.458;9.998;2023-02-15T09:59:54;3.30;99.90
16635;DHT22;8431;52.458;9.998;2023-02-15T10:02:38;3.60;99.90
16635;DHT22;8431;52.458;9.998;2023-02-15T10:05:14;3.80;99.90
16635;DHT22;8431;52.458;9.998;2023-02-15T10:08:17;3.70;99.90
16635;DHT22;8431;52.458;9.998;2023-02-15T10:10:52;3.80;99.90
16635;DHT22;8431;52.458;9.998;2023-02-15T10:13:32;4.00;99.90
16635;DHT22;8431;52.458;9.998;2023-02-15T10:16:11;4.10;99.90
16635;DHT22;8431;52.458;9.998;2023-02-15T10:18:52;4.00;99.90
16635;DHT22;8431;52.458;9.998;2023-02-15T10:21:31;4.00;99.90
16635;DHT22;8431;52.458;9.998;2023-02-15T10:24:23;3.80;99.90
16635;DHT22;8431;52.458;9.998;2023-02-15T10:26:58;4.00;99.90
16635;DHT22;8431;52.458;9.998;2023-02-15T10:29:33;4.30;99.90
16635;DHT22;8431;52.458;9.998;2023-02-15T10:32:09;4.60;99.90
16635;DHT22;8431;52.458;9.998;2023-02-15T10:34:45;4.90;99.90
16635;DHT22;8431;52.458;9.998;2023-02-15T10:37:40;4.80;99.90
16635;DHT22;8431;52.458;9.998;2023-02-15T10:40:18;4.80;99.90
16635;DHT22;8431;52.458;9.998;2023-02-15T10:43:09;4.70;99.90
16635;DHT22;8431;52.458;9.998;2023-02-15T10:45:51;4.80;99.90
16635;DHT22;8431;52.458;9.998;2023-02-15T10:48:35;5.10;99.90
16635;DHT22;8431;52.458;9.998;2023-02-15T10:51:11;5.10;99.90
16635;DHT22;8431;52.458;9.998;2023-02-15T10:54:01;5.20;99.90
16635;DHT22;8431;52.458;9.998;2023-02-15T10:56:38;5.20;99.90
16635;DHT22;8431;52.458;9.998;2023-02-15T10:59:23;5.40;99.90
16635;DHT22;8431;52.458;9.998;2023-02-15T11:02:00;5.50;99.90
16635;DHT22;8431;52.458;9.998;2023-02-15T11:04:45;5.60;99.90
16635;DHT22;8431;52.458;9.998;2023-02-15T11:07:17;5.70;99.90
16635;DHT22;8431;52.458;9.998;2023-02-15T11:09:48;5.80;99.90
16635;DHT22;8431;52.458;9.998;2023-02-15T11:12:18;5.60;99.90
16635;DHT22;8431;52.458;9.998;2023-02-15T11:14:50;5.50;99.90
16635;DHT22;8431;52.458;9.998;2023-02-15T11:17:26;5.60;99.90
16635;DHT22;8431;52.458;9.998;2023-02-15T11:20:00;5.60;99.90
16635;DHT22;8431;52.458;9.998;2023-02-15T11:22:29;5.70;99.90
16635;DHT22;8431;52.458;9.998;2023-02-15T11:24:58;5.80;99.90
16635;DHT22;8431;52.458;9.998;2023-02-15T11:27:29;5.80;99.90
16635;DHT22;8431;52.458;9.998;2023-02-15T11:30:00;5.90;99.90
16635;DHT22;8431;52.458;9.998;2023-02-15T11:32:33;6.00;99.90
16635;DHT22;8431;52.458;9.998;2023-02-15T11:35:04;6.00;99.90
16635;DHT22;8431;52.458;9.998;2023-02-15T11:37:40;6.00;99.90
16635;DHT22;8431;52.458;9.998;2023-02-15T11:40:20;6.40;99.90
16635;DHT22;8431;52.458;9.998;2023-02-15T11:42:53;6.60;99.90
16635;DHT22;8431;52.458;9.998;2023-02-15T11:45:28;6.70;99.90
16635;DHT22;8431;52.458;9.998;2023-02-15T11:47:58;6.70;99.90
16635;DHT22;8431;52.458;9.998;2023-02-15T11:50:27;6.60;99.90
16635;DHT22;8431;52.458;9.998;2023-02-15T11:52:59;6.60;99.90
16635;DHT22;8431;52.458;9.998;2023-02-15T11:55:28;6.50;99.90
16635;DHT22;8431;52.458;9.998;2023-02-15T11:57:59;6.50;99.90
16635;DHT22;8431;52.458;9.998;2023-02-15T12:00:33;6.70;99.90
16635;DHT22;8431;52.458;9.998;2023-02-15T12:03:13;6.80;99.90
16635;DHT22;8431;52.458;9.998;2023-02-15T12:05:44;6.70;99.90
16635;DHT22;8431;52.458;9.998;2023-02-15T12:08:21;6.80;99.90
16635;DHT22;8431;52.458;9.998;2023-02-15T12:10:58;6.80;99.90
16635;DHT22;8431;52.458;9.998;2023-02-15T12:13:27;6.70;99.90
16635;DHT22;8431;52.458;9.998;2023-02-15T12:15:57;6.80;99.90
16635;DHT22;8431;52.458;9.998;2023-02-15T12:18:35;6.80;99.90
16635;DHT22;8431;52.458;9.998;2023-02-15T12:21:06;6.80;99.90
16635;DHT22;8431;52.458;9.998;2023-02-15T12:23:34;7.20;99.90
16635;DHT22;8431;52.458;9.998;2023-02-15T12:26:06;7.40;99.90
16635;DHT22;8431;52.458;9.998;2023-02-15T12:28:35;7.50;99.90
16635;DHT22;8431;52.458;9.998;2023-02-15T12:31:07;7.40;99.90
16635;DHT22;8431;52.458;9.998;2023-02-15T12:33:41;7.30;99.90
16635;DHT22;8431;52.458;9.998;2023-02-15T12:36:14;7.20;99.90
16635;DHT22;8431;52.458;9.998;2023-02-15T12:38:42;7.30;99.90
16635;DHT22;8431;52.458;9.998;2023-02-15T12:41:22;7.40;99.90
16635;DHT22;8431;52.458;9.998;2023-02-15T12:44:04;7.50;99.90
16635;DHT22;8431;52.458;9.998;2023-02-15T12:46:32;7.70;99.90
16635;DHT22;8431;52.458;9.998;2023-02-15T12:49:14;7.80;99.90
16635;DHT22;8431;52.458;9.998;2023-02-15T12:51:45;8.00;99.90
16635;DHT22;8431;52.458;9.998;2023-02-15T12:54:33;8.00;99.90
16635;DHT22;8431;52.458;9.998;2023-02-15T12:57:21;8.00;99.90
16635;DHT22;8431;52.458;9.998;2023-02-15T12:59:51;7.90;99.90
16635;DHT22;8431;52.458;9.998;2023-02-15T13:02:25;7.80;99.90
16635;DHT22;8431;52.458;9.998;2023-02-15T13:04:54;7.80;99.90
16635;DHT22;8431;52.458;9.998;2023-02-15T13:07:24;7.80;99.90
16635;DHT22;8431;52.458;9.998;2023-02-15T13:09:51;8.00;99.90
16635;DHT22;8431;52.458;9.998;2023-02-15T13:12:21;8.30;99.90
16635;DHT22;8431;52.458;9.998;2023-02-15T13:14:50;8.40;99.90
16635;DHT22;8431;52.458;9.998;2023-02-15T13:17:21;8.50;99.90
16635;DHT22;8431;52.458;9.998;2023-02-15T13:19:52;8.40;99.90
16635;DHT22;8431;52.458;9.998;2023-02-15T13:22:22;8.40;99.90
16635;DHT22;8431;52.458;9.998;2023-02-15T13:24:54;8.40;99.90
16635;DHT22;8431;52.458;9.998;2023-02-15T13:27:26;8.50;99.90
16635;DHT22;8431;52.458;9.998;2023-02-15T13:29:58;8.50;99.90
16635;DHT22;8431;52.458;9.998;2023-02-15T13:32:29;8.50;99.90
16635;DHT22;8431;52.458;9.998;2023-02-15T13:34:59;8.50;99.90
16635;DHT22;8431;52.458;9.998;2023-02-15T13:37:42;8.40;99.90
16635;DHT22;8431;52.458;9.998;2023-02-15T13:40:15;8.30;99.90
16635;DHT22;8431;52.458;9.998;2023-02-15T13:42:48;8.40;99.90
16635;DHT22;8431;52.458;9.998;2023-02-15T13:45:36;8.40;99.90
16635;DHT22;8431;52.458;9.998;2023-02-15T13:48:13;8.40;99.90
16635;DHT22;8431;52.458;9.998;2023-02-15T13:50:56;8.50;99.90
16635;DHT22;8431;52.458;9.998;2023-02-15T13:53:44;8.60;99.90
16635;DHT22;8431;52.458;9.998;2023-02-15T13:56:19;8.80;99.90
16635;DHT22;8431;52.458;9.998;2023-02-15T13:59:14;8.80;99.90
16635;DHT22;8431;52.458;9.998;2023-02-15T14:01:45;8.80;99.90
16635;DHT22;8431;52.458;9.998;2023-02-15T14:04:37;8.80;99.90
16635;DHT22;8431;52.458;9.998;2023-02-15T14:07:35;8.80;99.90
16635;DHT22;8431;52.458;9.998;2023-02-15T14:10:42;9.00;99.90
16635;DHT22;8431;52.458;9.998;2023-02-15T14:16:30;8.70;99.90
16635;DHT22;8431;52.458;9.998;2023-02-15T14:19:05;8.80;99.90
16635;DHT22;8431;52.458;9.998;2023-02-15T14:21:41;8.90;99.90
16635;DHT22;8431;52.458;9.998;2023-02-15T14:24:22;8.80;99.90
16635;DHT22;8431;52.458;9.998;2023-02-15T14:26:59;8.70;99.90
16635;DHT22;8431;52.458;9.998;2023-02-15T14:29:38;8.70;99.90
16635;DHT22;8431;52.458;9.998;2023-02-15T14:32:11;8.50;99.90
16635;DHT22;8431;52.458;9.998;2023-02-15T14:34:45;8.40;99.90
16635;DHT22;8431;52.458;9.998;2023-02-15T14:37:16;8.20;99.90
16635;DHT22;8431;52.458;9.998;2023-02-15T14:39:54;8.20;99.90
16635;DHT22;8431;52.458;9.998;2023-02-15T14:42:45;8.10;99.90
16635;DHT22;8431;52.458;9.998;2023-02-15T14:45:19;8.00;99.90
16635;DHT22;8431;52.458;9.998;2023-02-15T14:47:54;8.10;99.90
16635;DHT22;8431;52.458;9.998;2023-02-15T14:50:45;8.20;99.90
16635;DHT22;8431;52.458;9.998;2023-02-15T14:53:36;8.40;99.90
16635;DHT22;8431;52.458;9.998;2023-02-15T14:56:20;8.60;99.90
16635;DHT22;8431;52.458;9.998;2023-02-15T15:01:41;8.70;99.90
16635;DHT22;8431;52.458;9.998;2023-02-15T15:04:10;8.60;99.90
16635;DHT22;8431;52.458;9.998;2023-02-15T15:06:41;8.50;99.90
16635;DHT22;8431;52.458;9.998;2023-02-15T15:09:19;8.40;99.90
16635;DHT22;8431;52.458;9.998;2023-02-15T15:11:50;8.30;99.90
16635;DHT22;8431;52.458;9.998;2023-02-15T15:14:37;8.20;99.90
16635;DHT22;8431;52.458;9.998;2023-02-15T15:17:08;8.20;99.90
16635;DHT22;8431;52.458;9.998;2023-02-15T15:20:04;8.10;99.90
16635;DHT22;8431;52.458;9.998;2023-02-15T15:22:40;8.10;99.90
16635;DHT22;8431;52.458;9.998;2023-02-15T15:27:55;8.10;99.90
16635;DHT22;8431;52.458;9.998;2023-02-15T15:30:48;8.00;99.90
16635;DHT22;8431;52.458;9.998;2023-02-15T15:37:16;7.90;99.90
16635;DHT22;8431;52.458;9.998;2023-02-15T15:42:57;7.70;99.90
16635;DHT22;8431;52.458;9.998;2023-02-15T15:45:56;7.50;99.90
16635;DHT22;8431;52.458;9.998;2023-02-15T15:48:30;7.40;99.90
16635;DHT22;8431;52.458;9.998;2023-02-15T15:51:02;7.20;99.90
16635;DHT22;8431;52.458;9.998;2023-02-15T15:53:40;7.10;99.90
16635;DHT22;8431;52.458;9.998;2023-02-15T15:56:13;7.10;99.90
16635;DHT22;8431;52.458;9.998;2023-02-15T15:58:48;6.90;99.90
16635;DHT22;8431;52.458;9.998;2023-02-15T16:01:26;6.80;99.90
16635;DHT22;8431;52.458;9.998;2023-02-15T16:03:55;6.70;99.90
16635;DHT22;8431;52.458;9.998;2023-02-15T16:06:28;6.60;99.90
16635;DHT22;8431;52.458;9.998;2023-02-15T16:08:56;6.50;99.90
16635;DHT22;8431;52.458;9.998;2023-02-15T16:11:25;6.40;99.90
16635;DHT22;8431;52.458;9.998;2023-02-15T16:13:54;6.20;99.90
16635;DHT22;8431;52.458;9.998;2023-02-15T16:16:23;6.20;99.90
16635;DHT22;8431;52.458;9.998;2023-02-15T16:18:52;6.10;99.90
16635;DHT22;8431;52.458;9.998;2023-02-15T16:21:22;6.00;99.90
16635;DHT22;8431;52.458;9.998;2023-02-15T16:24:20;5.90;99.90
16635;DHT22;8431;52.458;9.998;2023-02-15T16:27:08;5.80;99.90
16635;DHT22;8431;52.458;9.998;2023-02-15T16:29:39;5.70;99.90
16635;DHT22;8431;52.458;9.998;2023-02-15T16:32:19;5.60;99.90
16635;DHT22;8431;52.458;9.998;2023-02-15T16:34:56;5.50;99.90
16635;DHT22;8431;52.458;9.998;2023-02-15T16:37:25;5.40;99.90
16635;DHT22;8431;52.458;9.998;2023-02-15T16:39:54;5.30;99.90
16635;DHT22;8431;52.458;9.998;2023-02-15T16:42:22;5.20;99.90
16635;DHT22;8431;52.458;9.998;2023-02-15T16:44:55;5.10;99.90
16635;DHT22;8431;52.458;9.998;2023-02-15T16:47:26;5.00;99.90
16635;DHT22;8431;52.458;9.998;2023-02-15T16:49:56;4.90;99.90